sensor_id;sensor_type;location;lat;lon;timestamp;P1;durP1;ratioP1;P2;durP2;ratioP2
31382;SDS011;18014;49.228;11.102;2024-03-06T00:01:26;23.88;;;12.73;;
31382;SDS011;18014;49.228;11.102;2024-03-06T00:03:27;19.08;;;12.18;;
31382;SDS011;18014;49.228;11.102;2024-03-06T00:05:28;20.65;;;13.38;;
31382;SDS011;18014;49.228;11.102;2024-03-06T00:07:30;22.25;;;13.10;;
31382;SDS011;18014;49.228;11.102;2024-03-06T00:09:31;21.42;;;13.32;;
31382;SDS011;18014;49.228;11.102;2024-03-06T00:11:32;22.88;;;13.93;;
31382;SDS011;18014;49.228;11.102;2024-03-06T00:13:33;20.52;;;13.63;;
31382;SDS011;18014;49.228;11.102;2024-03-06T00:15:34;21.30;;;12.43;;
31382;SDS011;18014;49.228;11.102;2024-03-06T00:17:35;23.05;;;13.35;;
31382;SDS011;18014;49.228;11.102;2024-03-06T00:19:36;23.38;;;14.25;;
31382;SDS011;18014;49.228;11.102;2024-03-06T00:21:37;21.75;;;13.40;;
31382;SDS011;18014;49.228;11.102;2024-03-06T00:23:38;22.30;;;13.93;;
31382;SDS011;18014;49.228;11.102;2024-03-06T00:25:39;25.90;;;14.70;;
31382;SDS011;18014;49.228;11.102;2024-03-06T00:27:40;23.48;;;13.63;;
31382;SDS011;18014;49.228;11.102;2024-03-06T00:29:41;21.60;;;14.45;;
31382;SDS011;18014;49.228;11.102;2024-03-06T00:31:42;22.38;;;13.63;;
31382;SDS011;18014;49.228;11.102;2024-03-06T00:33:44;22.55;;;12.82;;
31382;SDS011;18014;49.228;11.102;2024-03-06T00:35:45;20.95;;;13.50;;
31382;SDS011;18014;49.228;11.102;2024-03-06T00:37:46;19.73;;;13.35;;
31382;SDS011;18014;49.228;11.102;2024-03-06T00:39:47;23.08;;;14.68;;
31382;SDS011;18014;49.228;11.102;2024-03-06T00:41:48;20.02;;;13.50;;
31382;SDS011;18014;49.228;11.102;2024-03-06T00:43:49;24.70;;;13.93;;
31382;SDS011;18014;49.228;11.102;2024-03-06T00:45:50;21.10;;;12.93;;
31382;SDS011;18014;49.228;11.102;2024-03-06T00:47:51;23.80;;;14.43;;
31382;SDS011;18014;49.228;11.102;2024-03-06T00:49:52;24.92;;;14.98;;
31382;SDS011;18014;49.228;11.102;2024-03-06T00:51:53;24.30;;;14.60;;
31382;SDS011;18014;49.228;11.102;2024-03-06T00:53:54;22.02;;;14.35;;
31382;SDS011;18014;49.228;11.102;2024-03-06T00:55:54;23.27;;;14.40;;
31382;SDS011;18014;49.228;11.102;2024-03-06T00:57:55;22.73;;;14.20;;
31382;SDS011;18014;49.228;11.102;2024-03-06T00:59:56;22.25;;;13.95;;
31382;SDS011;18014;49.228;11.102;2024-03-06T01:01:57;21.60;;;13.27;;
31382;SDS011;18014;49.228;11.102;2024-03-06T01:03:58;24.50;;;14.48;;
31382;SDS011;18014;49.228;11.102;2024-03-06T01:05:59;21.60;;;13.95;;
31382;SDS011;18014;49.228;11.102;2024-03-06T01:08:00;22.35;;;13.85;;
31382;SDS011;18014;49.228;11.102;2024-03-06T01:10:01;24.95;;;13.52;;
31382;SDS011;18014;49.228;11.102;2024-03-06T01:12:02;22.05;;;13.82;;
31382;SDS011;18014;49.228;11.102;2024-03-06T01:14:03;23.88;;;14.38;;
31382;SDS011;18014;49.228;11.102;2024-03-06T01:16:05;23.48;;;15.23;;
31382;SDS011;18014;49.228;11.102;2024-03-06T01:18:06;28.15;;;15.95;;
31382;SDS011;18014;49.228;11.102;2024-03-06T01:20:07;25.23;;;15.02;;
31382;SDS011;18014;49.228;11.102;2024-03-06T01:22:09;27.65;;;15.73;;
31382;SDS011;18014;49.228;11.102;2024-03-06T01:24:10;25.80;;;16.48;;
31382;SDS011;18014;49.228;11.102;2024-03-06T01:26:11;26.30;;;15.60;;
31382;SDS011;18014;49.228;11.102;2024-03-06T01:28:12;26.23;;;15.00;;
31382;SDS011;18014;49.228;11.102;2024-03-06T01:30:13;27.90;;;15.27;;
31382;SDS011;18014;49.228;11.102;2024-03-06T01:32:14;23.85;;;14.63;;
31382;SDS011;18014;49.228;11.102;2024-03-06T01:34:15;24.08;;;15.02;;
31382;SDS011;18014;49.228;11.102;2024-03-06T01:36:16;22.00;;;14.95;;
31382;SDS011;18014;49.228;11.102;2024-03-06T01:38:17;26.05;;;15.10;;
31382;SDS011;18014;49.228;11.102;2024-03-06T01:40:18;25.48;;;15.73;;
31382;SDS011;18014;49.228;11.102;2024-03-06T01:42:19;26.05;;;15.50;;
31382;SDS011;18014;49.228;11.102;2024-03-06T01:44:19;27.42;;;16.15;;
31382;SDS011;18014;49.228;11.102;2024-03-06T01:46:20;24.15;;;16.42;;
31382;SDS011;18014;49.228;11.102;2024-03-06T01:48:23;23.88;;;16.42;;
31382;SDS011;18014;49.228;11.102;2024-03-06T01:50:27;25.60;;;15.95;;
31382;SDS011;18014;49.228;11.102;2024-03-06T01:52:29;23.92;;;15.88;;
31382;SDS011;18014;49.228;11.102;2024-03-06T01:54:30;28.08;;;16.25;;
31382;SDS011;18014;49.228;11.102;2024-03-06T01:56:35;25.98;;;15.23;;
31382;SDS011;18014;49.228;11.102;2024-03-06T01:58:38;26.85;;;16.83;;
31382;SDS011;18014;49.228;11.102;2024-03-06T02:00:40;25.35;;;16.15;;
31382;SDS011;18014;49.228;11.102;2024-03-06T02:02:41;29.13;;;16.92;;
31382;SDS011;18014;49.228;11.102;2024-03-06T02:04:43;25.73;;;15.70;;
31382;SDS011;18014;49.228;11.102;2024-03-06T02:06:44;26.52;;;16.27;;
31382;SDS011;18014;49.228;11.102;2024-03-06T02:08:46;25.15;;;16.38;;
31382;SDS011;18014;49.228;11.102;2024-03-06T02:10:47;26.05;;;16.80;;
31382;SDS011;18014;49.228;11.102;2024-03-06T02:12:48;22.52;;;14.38;;
31382;SDS011;18014;49.228;11.102;2024-03-06T02:14:49;26.02;;;16.02;;
31382;SDS011;18014;49.228;11.102;2024-03-06T02:16:50;25.42;;;16.15;;
31382;SDS011;18014;49.228;11.102;2024-03-06T02:18:55;28.98;;;16.73;;
31382;SDS011;18014;49.228;11.102;2024-03-06T02:20:56;26.75;;;16.50;;
31382;SDS011;18014;49.228;11.102;2024-03-06T02:22:57;30.83;;;17.92;;
31382;SDS011;18014;49.228;11.102;2024-03-06T02:24:58;31.67;;;16.75;;
31382;SDS011;18014;49.228;11.102;2024-03-06T02:26:59;26.80;;;16.45;;
31382;SDS011;18014;49.228;11.102;2024-03-06T02:29:00;23.65;;;15.43;;
31382;SDS011;18014;49.228;11.102;2024-03-06T02:31:01;25.50;;;15.95;;
31382;SDS011;18014;49.228;11.102;2024-03-06T02:33:02;29.75;;;18.00;;
31382;SDS011;18014;49.228;11.102;2024-03-06T02:35:06;26.67;;;16.77;;
31382;SDS011;18014;49.228;11.102;2024-03-06T02:37:08;27.47;;;16.90;;
31382;SDS011;18014;49.228;11.102;2024-03-06T02:39:09;27.17;;;17.25;;
31382;SDS011;18014;49.228;11.102;2024-03-06T02:41:10;29.38;;;15.98;;
31382;SDS011;18014;49.228;11.102;2024-03-06T02:43:13;27.48;;;17.10;;
31382;SDS011;18014;49.228;11.102;2024-03-06T02:45:15;28.88;;;17.05;;
31382;SDS011;18014;49.228;11.102;2024-03-06T02:47:16;27.35;;;16.52;;
31382;SDS011;18014;49.228;11.102;2024-03-06T02:49:17;28.55;;;17.30;;
31382;SDS011;18014;49.228;11.102;2024-03-06T02:51:19;27.65;;;16.52;;
31382;SDS011;18014;49.228;11.102;2024-03-06T02:53:20;27.65;;;17.73;;
31382;SDS011;18014;49.228;11.102;2024-03-06T02:55:22;30.73;;;18.98;;
31382;SDS011;18014;49.228;11.102;2024-03-06T02:57:26;28.70;;;17.52;;
31382;SDS011;18014;49.228;11.102;2024-03-06T02:59:30;30.00;;;19.52;;
31382;SDS011;18014;49.228;11.102;2024-03-06T03:01:31;28.85;;;17.60;;
31382;SDS011;18014;49.228;11.102;2024-03-06T03:03:32;34.35;;;20.65;;
31382;SDS011;18014;49.228;11.102;2024-03-06T03:05:33;28.95;;;18.65;;
31382;SDS011;18014;49.228;11.102;2024-03-06T03:07:35;34.00;;;19.27;;
31382;SDS011;18014;49.228;11.102;2024-03-06T03:09:36;32.50;;;19.77;;
31382;SDS011;18014;49.228;11.102;2024-03-06T03:11:38;30.02;;;19.45;;
31382;SDS011;18014;49.228;11.102;2024-03-06T03:13:39;28.85;;;18.85;;
31382;SDS011;18014;49.228;11.102;2024-03-06T03:15:40;30.35;;;18.63;;
31382;SDS011;18014;49.228;11.102;2024-03-06T03:17:41;30.10;;;18.88;;
31382;SDS011;18014;49.228;11.102;2024-03-06T03:19:42;30.95;;;17.02;;
31382;SDS011;18014;49.228;11.102;2024-03-06T03:21:44;30.60;;;17.95;;
31382;SDS011;18014;49.228;11.102;2024-03-06T03:23:45;29.60;;;17.67;;
31382;SDS011;18014;49.228;11.102;2024-03-06T03:25:46;29.73;;;17.48;;
31382;SDS011;18014;49.228;11.102;2024-03-06T03:27:47;28.15;;;17.25;;
31382;SDS011;18014;49.228;11.102;2024-03-06T03:29:48;28.45;;;17.77;;
31382;SDS011;18014;49.228;11.102;2024-03-06T03:31:49;31.75;;;17.58;;
31382;SDS011;18014;49.228;11.102;2024-03-06T03:33:49;27.98;;;17.77;;
31382;SDS011;18014;49.228;11.102;2024-03-06T03:35:50;29.50;;;19.05;;
31382;SDS011;18014;49.228;11.102;2024-03-06T03:37:51;29.25;;;17.75;;
31382;SDS011;18014;49.228;11.102;2024-03-06T03:39:52;31.00;;;18.95;;
31382;SDS011;18014;49.228;11.102;2024-03-06T03:41:54;31.98;;;18.67;;
31382;SDS011;18014;49.228;11.102;2024-03-06T03:43:55;32.00;;;18.45;;
31382;SDS011;18014;49.228;11.102;2024-03-06T03:45:56;30.65;;;18.73;;
31382;SDS011;18014;49.228;11.102;2024-03-06T03:47:57;32.95;;;19.25;;
31382;SDS011;18014;49.228;11.102;2024-03-06T03:49:58;33.90;;;20.10;;
31382;SDS011;18014;49.228;11.102;2024-03-06T03:51:59;34.15;;;18.88;;
31382;SDS011;18014;49.228;11.102;2024-03-06T03:54:00;35.55;;;19.88;;
31382;SDS011;18014;49.228;11.102;2024-03-06T03:56:01;39.30;;;22.00;;
31382;SDS011;18014;49.228;11.102;2024-03-06T03:58:03;32.90;;;19.73;;
31382;SDS011;18014;49.228;11.102;2024-03-06T04:00:05;36.63;;;21.08;;
31382;SDS011;18014;49.228;11.102;2024-03-06T04:02:10;31.27;;;18.55;;
31382;SDS011;18014;49.228;11.102;2024-03-06T04:04:11;37.53;;;21.52;;
31382;SDS011;18014;49.228;11.102;2024-03-06T04:06:13;34.28;;;20.15;;
31382;SDS011;18014;49.228;11.102;2024-03-06T04:08:14;36.08;;;20.88;;
31382;SDS011;18014;49.228;11.102;2024-03-06T04:10:15;37.78;;;21.13;;
31382;SDS011;18014;49.228;11.102;2024-03-06T04:12:16;36.17;;;20.83;;
31382;SDS011;18014;49.228;11.102;2024-03-06T04:14:17;36.53;;;20.73;;
31382;SDS011;18014;49.228;11.102;2024-03-06T04:16:19;37.03;;;21.88;;
31382;SDS011;18014;49.228;11.102;2024-03-06T04:18:20;31.27;;;20.23;;
31382;SDS011;18014;49.228;11.102;2024-03-06T04:20:21;36.08;;;20.45;;
31382;SDS011;18014;49.228;11.102;2024-03-06T04:22:22;33.45;;;21.63;;
31382;SDS011;18014;49.228;11.102;2024-03-06T04:24:23;38.47;;;22.73;;
31382;SDS011;18014;49.228;11.102;2024-03-06T04:26:24;41.15;;;23.55;;
31382;SDS011;18014;49.228;11.102;2024-03-06T04:28:25;38.67;;;22.73;;
31382;SDS011;18014;49.228;11.102;2024-03-06T04:30:26;41.63;;;23.92;;
31382;SDS011;18014;49.228;11.102;2024-03-06T04:32:27;39.63;;;22.58;;
31382;SDS011;18014;49.228;11.102;2024-03-06T04:34:28;42.03;;;22.85;;
31382;SDS011;18014;49.228;11.102;2024-03-06T04:36:29;41.00;;;23.05;;
31382;SDS011;18014;49.228;11.102;2024-03-06T04:38:29;42.08;;;24.20;;
31382;SDS011;18014;49.228;11.102;2024-03-06T04:40:30;43.95;;;24.58;;
31382;SDS011;18014;49.228;11.102;2024-03-06T04:42:31;43.65;;;22.83;;
31382;SDS011;18014;49.228;11.102;2024-03-06T04:44:36;41.70;;;23.27;;
31382;SDS011;18014;49.228;11.102;2024-03-06T04:46:37;39.08;;;22.70;;
31382;SDS011;18014;49.228;11.102;2024-03-06T04:48:38;41.92;;;23.50;;
31382;SDS011;18014;49.228;11.102;2024-03-06T04:50:38;41.90;;;24.23;;
31382;SDS011;18014;49.228;11.102;2024-03-06T04:52:40;42.05;;;24.27;;
31382;SDS011;18014;49.228;11.102;2024-03-06T04:54:41;45.33;;;24.92;;
31382;SDS011;18014;49.228;11.102;2024-03-06T04:56:42;42.40;;;24.02;;
31382;SDS011;18014;49.228;11.102;2024-03-06T04:58:43;45.75;;;24.02;;
31382;SDS011;18014;49.228;11.102;2024-03-06T05:00:44;43.67;;;24.08;;
31382;SDS011;18014;49.228;11.102;2024-03-06T05:02:45;44.85;;;25.50;;
31382;SDS011;18014;49.228;11.102;2024-03-06T05:04:48;48.00;;;26.45;;
31382;SDS011;18014;49.228;11.102;2024-03-06T05:06:49;43.28;;;24.95;;
31382;SDS011;18014;49.228;11.102;2024-03-06T05:08:50;46.65;;;25.08;;
31382;SDS011;18014;49.228;11.102;2024-03-06T05:10:51;43.97;;;25.30;;
31382;SDS011;18014;49.228;11.102;2024-03-06T05:12:52;48.33;;;26.15;;
31382;SDS011;18014;49.228;11.102;2024-03-06T05:14:54;46.80;;;26.95;;
31382;SDS011;18014;49.228;11.102;2024-03-06T05:16:55;46.50;;;24.37;;
31382;SDS011;18014;49.228;11.102;2024-03-06T05:18:56;50.45;;;26.83;;
31382;SDS011;18014;49.228;11.102;2024-03-06T05:20:57;47.20;;;24.52;;
31382;SDS011;18014;49.228;11.102;2024-03-06T05:22:58;53.97;;;26.83;;
31382;SDS011;18014;49.228;11.102;2024-03-06T05:24:59;50.72;;;26.67;;
31382;SDS011;18014;49.228;11.102;2024-03-06T05:27:00;48.78;;;25.73;;
31382;SDS011;18014;49.228;11.102;2024-03-06T05:29:01;51.40;;;26.75;;
31382;SDS011;18014;49.228;11.102;2024-03-06T05:31:13;54.58;;;27.65;;
31382;SDS011;18014;49.228;11.102;2024-03-06T05:33:19;45.90;;;26.15;;
31382;SDS011;18014;49.228;11.102;2024-03-06T05:35:20;55.60;;;28.75;;
31382;SDS011;18014;49.228;11.102;2024-03-06T05:37:21;57.47;;;28.40;;
31382;SDS011;18014;49.228;11.102;2024-03-06T05:39:21;52.45;;;27.75;;
31382;SDS011;18014;49.228;11.102;2024-03-06T05:41:22;49.60;;;27.45;;
31382;SDS011;18014;49.228;11.102;2024-03-06T05:43:23;58.25;;;29.13;;
31382;SDS011;18014;49.228;11.102;2024-03-06T05:45:24;57.80;;;28.85;;
31382;SDS011;18014;49.228;11.102;2024-03-06T05:47:25;53.97;;;29.58;;
31382;SDS011;18014;49.228;11.102;2024-03-06T05:49:26;54.50;;;29.52;;
31382;SDS011;18014;49.228;11.102;2024-03-06T05:51:28;60.53;;;28.80;;
31382;SDS011;18014;49.228;11.102;2024-03-06T05:53:29;59.20;;;29.65;;
31382;SDS011;18014;49.228;11.102;2024-03-06T05:55:30;52.85;;;27.52;;
31382;SDS011;18014;49.228;11.102;2024-03-06T05:57:30;59.17;;;29.52;;
31382;SDS011;18014;49.228;11.102;2024-03-06T05:59:32;57.85;;;28.67;;
31382;SDS011;18014;49.228;11.102;2024-03-06T06:01:33;54.30;;;29.63;;
31382;SDS011;18014;49.228;11.102;2024-03-06T06:03:34;53.92;;;28.15;;
31382;SDS011;18014;49.228;11.102;2024-03-06T06:05:35;52.45;;;27.17;;
31382;SDS011;18014;49.228;11.102;2024-03-06T06:07:37;55.93;;;30.03;;
31382;SDS011;18014;49.228;11.102;2024-03-06T06:09:38;52.15;;;27.27;;
31382;SDS011;18014;49.228;11.102;2024-03-06T06:11:40;57.72;;;29.42;;
31382;SDS011;18014;49.228;11.102;2024-03-06T06:13:42;61.78;;;30.45;;
31382;SDS011;18014;49.228;11.102;2024-03-06T06:15:43;55.65;;;28.80;;
31382;SDS011;18014;49.228;11.102;2024-03-06T06:17:44;53.83;;;29.05;;
31382;SDS011;18014;49.228;11.102;2024-03-06T06:19:46;60.03;;;29.95;;
31382;SDS011;18014;49.228;11.102;2024-03-06T06:21:47;56.72;;;29.73;;
31382;SDS011;18014;49.228;11.102;2024-03-06T06:23:48;56.80;;;29.27;;
31382;SDS011;18014;49.228;11.102;2024-03-06T06:25:49;67.88;;;31.98;;
31382;SDS011;18014;49.228;11.102;2024-03-06T06:27:50;63.33;;;31.38;;
31382;SDS011;18014;49.228;11.102;2024-03-06T06:29:51;64.65;;;32.03;;
31382;SDS011;18014;49.228;11.102;2024-03-06T06:31:54;58.42;;;30.50;;
31382;SDS011;18014;49.228;11.102;2024-03-06T06:33:57;60.15;;;31.05;;
31382;SDS011;18014;49.228;11.102;2024-03-06T06:35:58;60.83;;;30.25;;
31382;SDS011;18014;49.228;11.102;2024-03-06T06:38:00;55.20;;;29.70;;
31382;SDS011;18014;49.228;11.102;2024-03-06T06:40:01;61.08;;;28.88;;
31382;SDS011;18014;49.228;11.102;2024-03-06T06:42:06;53.72;;;28.95;;
31382;SDS011;18014;49.228;11.102;2024-03-06T06:44:07;57.17;;;29.75;;
31382;SDS011;18014;49.228;11.102;2024-03-06T06:46:08;54.40;;;28.67;;
31382;SDS011;18014;49.228;11.102;2024-03-06T06:48:09;53.83;;;28.00;;
31382;SDS011;18014;49.228;11.102;2024-03-06T06:50:10;56.60;;;29.23;;
31382;SDS011;18014;49.228;11.102;2024-03-06T06:52:11;54.08;;;28.80;;
31382;SDS011;18014;49.228;11.102;2024-03-06T06:54:12;55.22;;;28.52;;
31382;SDS011;18014;49.228;11.102;2024-03-06T06:56:13;48.20;;;27.77;;
31382;SDS011;18014;49.228;11.102;2024-03-06T06:58:14;51.65;;;27.63;;
31382;SDS011;18014;49.228;11.102;2024-03-06T07:00:15;56.00;;;29.27;;
31382;SDS011;18014;49.228;11.102;2024-03-06T07:02:18;55.42;;;27.88;;
31382;SDS011;18014;49.228;11.102;2024-03-06T07:04:19;53.70;;;26.92;;
31382;SDS011;18014;49.228;11.102;2024-03-06T07:06:20;55.58;;;27.83;;
31382;SDS011;18014;49.228;11.102;2024-03-06T07:08:21;57.80;;;28.35;;
31382;SDS011;18014;49.228;11.102;2024-03-06T07:10:22;50.00;;;27.02;;
31382;SDS011;18014;49.228;11.102;2024-03-06T07:12:23;52.78;;;27.00;;
31382;SDS011;18014;49.228;11.102;2024-03-06T07:14:25;52.58;;;26.20;;
31382;SDS011;18014;49.228;11.102;2024-03-06T07:16:25;50.33;;;26.20;;
31382;SDS011;18014;49.228;11.102;2024-03-06T07:18:26;50.33;;;27.27;;
31382;SDS011;18014;49.228;11.102;2024-03-06T07:20:27;46.05;;;25.60;;
31382;SDS011;18014;49.228;11.102;2024-03-06T07:22:29;59.10;;;28.48;;
31382;SDS011;18014;49.228;11.102;2024-03-06T07:24:31;50.53;;;26.67;;
31382;SDS011;18014;49.228;11.102;2024-03-06T07:26:32;49.65;;;26.02;;
31382;SDS011;18014;49.228;11.102;2024-03-06T07:28:33;48.90;;;25.38;;
31382;SDS011;18014;49.228;11.102;2024-03-06T07:30:34;49.17;;;24.88;;
31382;SDS011;18014;49.228;11.102;2024-03-06T07:32:35;47.47;;;24.33;;
31382;SDS011;18014;49.228;11.102;2024-03-06T07:34:36;45.53;;;24.05;;
31382;SDS011;18014;49.228;11.102;2024-03-06T07:36:37;45.90;;;24.48;;
31382;SDS011;18014;49.228;11.102;2024-03-06T07:38:38;45.38;;;24.10;;
31382;SDS011;18014;49.228;11.102;2024-03-06T07:40:39;46.20;;;23.88;;
31382;SDS011;18014;49.228;11.102;2024-03-06T07:42:40;48.65;;;23.60;;
31382;SDS011;18014;49.228;11.102;2024-03-06T07:44:41;43.30;;;21.85;;
31382;SDS011;18014;49.228;11.102;2024-03-06T07:46:42;45.67;;;23.40;;
31382;SDS011;18014;49.228;11.102;2024-03-06T07:48:43;43.30;;;22.95;;
31382;SDS011;18014;49.228;11.102;2024-03-06T07:50:44;39.88;;;20.60;;
31382;SDS011;18014;49.228;11.102;2024-03-06T07:52:45;42.58;;;22.77;;
31382;SDS011;18014;49.228;11.102;2024-03-06T07:54:46;46.22;;;22.52;;
31382;SDS011;18014;49.228;11.102;2024-03-06T07:56:47;38.78;;;19.65;;
31382;SDS011;18014;49.228;11.102;2024-03-06T07:58:48;36.33;;;20.45;;
31382;SDS011;18014;49.228;11.102;2024-03-06T08:00:49;41.30;;;22.00;;
31382;SDS011;18014;49.228;11.102;2024-03-06T08:02:53;44.10;;;22.75;;
31382;SDS011;18014;49.228;11.102;2024-03-06T08:04:54;37.70;;;18.90;;
31382;SDS011;18014;49.228;11.102;2024-03-06T08:06:55;36.95;;;18.95;;
31382;SDS011;18014;49.228;11.102;2024-03-06T08:08:58;39.05;;;19.52;;
31382;SDS011;18014;49.228;11.102;2024-03-06T08:10:59;38.00;;;19.00;;
31382;SDS011;18014;49.228;11.102;2024-03-06T08:13:03;36.65;;;20.55;;
31382;SDS011;18014;49.228;11.102;2024-03-06T08:15:04;36.75;;;19.92;;
31382;SDS011;18014;49.228;11.102;2024-03-06T08:17:09;39.15;;;19.38;;
31382;SDS011;18014;49.228;11.102;2024-03-06T08:19:10;31.85;;;17.50;;
31382;SDS011;18014;49.228;11.102;2024-03-06T08:21:11;35.05;;;18.48;;
31382;SDS011;18014;49.228;11.102;2024-03-06T08:23:12;37.25;;;17.85;;
31382;SDS011;18014;49.228;11.102;2024-03-06T08:25:14;36.28;;;17.42;;
31382;SDS011;18014;49.228;11.102;2024-03-06T08:27:15;35.72;;;18.58;;
31382;SDS011;18014;49.228;11.102;2024-03-06T08:29:17;33.20;;;16.88;;
31382;SDS011;18014;49.228;11.102;2024-03-06T08:31:18;37.05;;;17.08;;
31382;SDS011;18014;49.228;11.102;2024-03-06T08:33:19;32.95;;;17.25;;
31382;SDS011;18014;49.228;11.102;2024-03-06T08:35:21;33.28;;;17.25;;
31382;SDS011;18014;49.228;11.102;2024-03-06T08:37:23;33.08;;;16.98;;
31382;SDS011;18014;49.228;11.102;2024-03-06T08:39:24;35.72;;;16.85;;
31382;SDS011;18014;49.228;11.102;2024-03-06T08:41:25;29.20;;;15.75;;
31382;SDS011;18014;49.228;11.102;2024-03-06T08:43:26;30.05;;;15.80;;
31382;SDS011;18014;49.228;11.102;2024-03-06T08:45:27;33.13;;;16.77;;
31382;SDS011;18014;49.228;11.102;2024-03-06T08:47:28;35.70;;;17.75;;
31382;SDS011;18014;49.228;11.102;2024-03-06T08:49:29;35.00;;;18.27;;
31382;SDS011;18014;49.228;11.102;2024-03-06T08:51:30;29.30;;;16.63;;
31382;SDS011;18014;49.228;11.102;2024-03-06T08:53:31;32.97;;;16.77;;
31382;SDS011;18014;49.228;11.102;2024-03-06T08:55:32;29.00;;;16.23;;
31382;SDS011;18014;49.228;11.102;2024-03-06T08:57:33;33.15;;;16.50;;
31382;SDS011;18014;49.228;11.102;2024-03-06T08:59:37;33.70;;;15.48;;
31382;SDS011;18014;49.228;11.102;2024-03-06T09:01:38;32.70;;;16.60;;
31382;SDS011;18014;49.228;11.102;2024-03-06T09:03:39;32.42;;;15.75;;
31382;SDS011;18014;49.228;11.102;2024-03-06T09:05:40;31.73;;;16.38;;
31382;SDS011;18014;49.228;11.102;2024-03-06T09:07:41;35.90;;;16.08;;
31382;SDS011;18014;49.228;11.102;2024-03-06T09:09:42;33.83;;;16.90;;
31382;SDS011;18014;49.228;11.102;2024-03-06T09:11:43;33.28;;;17.50;;
31382;SDS011;18014;49.228;11.102;2024-03-06T09:13:44;37.22;;;17.73;;
31382;SDS011;18014;49.228;11.102;2024-03-06T09:15:45;33.97;;;16.52;;
31382;SDS011;18014;49.228;11.102;2024-03-06T09:17:46;36.53;;;16.20;;
31382;SDS011;18014;49.228;11.102;2024-03-06T09:19:47;27.92;;;15.85;;
31382;SDS011;18014;49.228;11.102;2024-03-06T09:21:48;32.13;;;15.02;;
31382;SDS011;18014;49.228;11.102;2024-03-06T09:23:49;36.72;;;16.95;;
31382;SDS011;18014;49.228;11.102;2024-03-06T09:25:51;29.38;;;15.25;;
31382;SDS011;18014;49.228;11.102;2024-03-06T09:27:53;34.53;;;16.08;;
31382;SDS011;18014;49.228;11.102;2024-03-06T09:29:54;34.85;;;17.67;;
31382;SDS011;18014;49.228;11.102;2024-03-06T09:31:56;34.67;;;16.23;;
31382;SDS011;18014;49.228;11.102;2024-03-06T09:33:58;34.78;;;16.48;;
31382;SDS011;18014;49.228;11.102;2024-03-06T09:35:59;33.90;;;17.27;;
31382;SDS011;18014;49.228;11.102;2024-03-06T09:38:00;40.67;;;17.42;;
31382;SDS011;18014;49.228;11.102;2024-03-06T09:40:01;37.00;;;17.90;;
31382;SDS011;18014;49.228;11.102;2024-03-06T09:42:03;34.38;;;17.38;;
31382;SDS011;18014;49.228;11.102;2024-03-06T09:44:04;34.47;;;17.10;;
31382;SDS011;18014;49.228;11.102;2024-03-06T09:46:05;33.53;;;16.30;;
31382;SDS011;18014;49.228;11.102;2024-03-06T09:48:06;30.60;;;16.55;;
31382;SDS011;18014;49.228;11.102;2024-03-06T09:50:09;35.08;;;17.38;;
31382;SDS011;18014;49.228;11.102;2024-03-06T09:52:11;40.33;;;18.70;;
31382;SDS011;18014;49.228;11.102;2024-03-06T09:54:13;36.25;;;17.98;;
31382;SDS011;18014;49.228;11.102;2024-03-06T09:56:17;35.92;;;17.45;;
31382;SDS011;18014;49.228;11.102;2024-03-06T09:58:19;37.65;;;18.15;;
31382;SDS011;18014;49.228;11.102;2024-03-06T10:00:21;32.25;;;17.42;;
31382;SDS011;18014;49.228;11.102;2024-03-06T10:04:37;34.58;;;17.00;;
31382;SDS011;18014;49.228;11.102;2024-03-06T10:06:38;35.88;;;16.98;;
31382;SDS011;18014;49.228;11.102;2024-03-06T10:08:41;41.30;;;19.35;;
31382;SDS011;18014;49.228;11.102;2024-03-06T10:10:43;35.50;;;18.27;;
31382;SDS011;18014;49.228;11.102;2024-03-06T10:12:46;32.65;;;17.52;;
31382;SDS011;18014;49.228;11.102;2024-03-06T10:14:50;36.22;;;17.17;;
31382;SDS011;18014;49.228;11.102;2024-03-06T10:16:55;31.88;;;17.30;;
31382;SDS011;18014;49.228;11.102;2024-03-06T10:18:57;38.30;;;17.77;;
31382;SDS011;18014;49.228;11.102;2024-03-06T10:21:14;39.13;;;18.77;;
31382;SDS011;18014;49.228;11.102;2024-03-06T10:23:17;31.95;;;17.60;;
31382;SDS011;18014;49.228;11.102;2024-03-06T10:25:19;38.40;;;17.92;;
31382;SDS011;18014;49.228;11.102;2024-03-06T10:27:21;31.55;;;16.77;;
31382;SDS011;18014;49.228;11.102;2024-03-06T10:29:22;36.15;;;18.17;;
31382;SDS011;18014;49.228;11.102;2024-03-06T10:33:28;38.17;;;18.45;;
31382;SDS011;18014;49.228;11.102;2024-03-06T10:35:31;34.92;;;17.25;;
31382;SDS011;18014;49.228;11.102;2024-03-06T10:37:32;32.17;;;16.30;;
31382;SDS011;18014;49.228;11.102;2024-03-06T10:39:34;37.33;;;16.70;;
31382;SDS011;18014;49.228;11.102;2024-03-06T10:41:39;34.53;;;15.52;;
31382;SDS011;18014;49.228;11.102;2024-03-06T10:43:42;33.03;;;16.77;;
31382;SDS011;18014;49.228;11.102;2024-03-06T10:45:47;33.70;;;16.45;;
31382;SDS011;18014;49.228;11.102;2024-03-06T10:47:49;35.65;;;16.13;;
31382;SDS011;18014;49.228;11.102;2024-03-06T10:49:51;31.67;;;15.32;;
31382;SDS011;18014;49.228;11.102;2024-03-06T10:51:55;31.27;;;15.65;;
31382;SDS011;18014;49.228;11.102;2024-03-06T10:54:07;32.90;;;15.93;;
31382;SDS011;18014;49.228;11.102;2024-03-06T10:56:10;35.20;;;16.63;;
31382;SDS011;18014;49.228;11.102;2024-03-06T10:58:12;29.88;;;16.20;;
31382;SDS011;18014;49.228;11.102;2024-03-06T11:00:14;36.42;;;15.77;;
31382;SDS011;18014;49.228;11.102;2024-03-06T11:02:19;33.97;;;15.73;;
31382;SDS011;18014;49.228;11.102;2024-03-06T11:04:20;34.33;;;16.40;;
31382;SDS011;18014;49.228;11.102;2024-03-06T11:06:23;28.80;;;15.98;;
31382;SDS011;18014;49.228;11.102;2024-03-06T11:08:26;30.15;;;14.68;;
31382;SDS011;18014;49.228;11.102;2024-03-06T11:10:35;32.80;;;15.65;;
31382;SDS011;18014;49.228;11.102;2024-03-06T11:12:39;25.33;;;14.30;;
31382;SDS011;18014;49.228;11.102;2024-03-06T11:14:41;33.67;;;15.63;;
31382;SDS011;18014;49.228;11.102;2024-03-06T11:16:56;33.30;;;15.35;;
31382;SDS011;18014;49.228;11.102;2024-03-06T11:19:04;32.38;;;16.27;;
31382;SDS011;18014;49.228;11.102;2024-03-06T11:23:11;28.48;;;14.45;;
31382;SDS011;18014;49.228;11.102;2024-03-06T11:28:06;31.27;;;14.75;;
31382;SDS011;18014;49.228;11.102;2024-03-06T11:30:10;29.52;;;13.25;;
31382;SDS011;18014;49.228;11.102;2024-03-06T11:32:13;27.80;;;14.48;;
31382;SDS011;18014;49.228;11.102;2024-03-06T11:34:14;29.75;;;14.90;;
31382;SDS011;18014;49.228;11.102;2024-03-06T11:36:26;30.00;;;14.13;;
31382;SDS011;18014;49.228;11.102;2024-03-06T11:38:31;26.40;;;14.32;;
31382;SDS011;18014;49.228;11.102;2024-03-06T11:40:32;27.60;;;14.25;;
31382;SDS011;18014;49.228;11.102;2024-03-06T11:42:42;27.98;;;14.18;;
31382;SDS011;18014;49.228;11.102;2024-03-06T11:44:53;34.75;;;14.35;;
31382;SDS011;18014;49.228;11.102;2024-03-06T11:47:00;26.80;;;13.50;;
31382;SDS011;18014;49.228;11.102;2024-03-06T11:49:15;30.25;;;13.70;;
31382;SDS011;18014;49.228;11.102;2024-03-06T11:51:24;31.85;;;14.30;;